Time;durP1;ratioP1;P1;durP2;ratioP2;P2;SDS_P1;SDS_P2;PMS_P1;PMS_P2;Temp;Humidity;BMP_temperature;BMP_pressure;BME280_temperature;BME280_humidity;BME280_pressure;Samples;Min_cycle;Max_cycle;Signal;HPM_P1;HPM_P2
2023/12/11 00:01:40;;;;;;;40.70;4.35;;;;;;;;;;5075500;28;20380;-27
2023/12/11 00:04:05;;;;;;;39.90;4.47;;;;;;;;;;5075967;28;20360;-29
2023/12/11 00:06:31;;;;;;;38.58;5.20;;;;;;;;;;5075465;28;20082;-27
2023/12/11 00:08:56;;;;;;;40.58;5.57;;;;;;;;;;5075289;28;20016;-28
2023/12/11 00:11:22;;;;;;;39.42;4.82;;;;;;;;;;5075813;28;20032;-28
2023/12/11 00:13:47;;;;;;;42.28;5.57;;;;;;;;;;5075553;28;20027;-27
2023/12/11 00:16:14;;;;;;;44.92;4.80;;;;;;;;;;5074893;28;20016;-27
2023/12/11 00:18:40;;;;;;;36.35;5.68;;;;;;;;;;5073900;28;20032;-28
2023/12/11 00:21:05;;;;;;;43.83;5.80;;;;;;;;;;5075030;28;20017;-27
2023/12/11 00:23:30;;;;;;;52.58;6.22;;;;;;;;;;5075130;28;20027;-27
2023/12/11 00:25:56;;;;;;;47.95;5.95;;;;;;;;;;5075260;28;20070;-28
2023/12/11 00:28:21;;;;;;;49.13;5.90;;;;;;;;;;5074923;28;20127;-28
2023/12/11 00:30:46;;;;;;;55.33;6.03;;;;;;;;;;5075172;28;20078;-28
2023/12/11 00:33:12;;;;;;;50.47;6.22;;;;;;;;;;5074827;28;20013;-28
2023/12/11 00:35:37;;;;;;;51.95;5.95;;;;;;;;;;5074858;28;20103;-28
2023/12/11 00:38:02;;;;;;;53.80;5.55;;;;;;;;;;5074814;28;20117;-28
2023/12/11 00:40:27;;;;;;;48.47;5.57;;;;;;;;;;5074687;28;20016;-28
2023/12/11 00:42:52;;;;;;;47.03;6.28;;;;;;;;;;5074685;28;20020;-28
2023/12/11 00:45:18;;;;;;;59.55;6.28;;;;;;;;;;5075183;28;20032;-28
2023/12/11 00:47:43;;;;;;;43.78;5.10;;;;;;;;;;5074451;28;20376;-28
2023/12/11 00:50:08;;;;;;;48.08;5.50;;;;;;;;;;5075202;28;20099;-27
2023/12/11 00:52:33;;;;;;;53.92;5.90;;;;;;;;;;5074773;28;20535;-28
2023/12/11 00:54:59;;;;;;;37.65;5.22;;;;;;;;;;5074462;28;20023;-27
2023/12/11 00:57:24;;;;;;;62.15;7.13;;;;;;;;;;5074296;28;20034;-28
2023/12/11 00:59:49;;;;;;;55.08;6.03;;;;;;;;;;5074905;28;20052;-28
2023/12/11 01:02:16;;;;;;;56.13;5.88;;;;;;;;;;5074996;28;20044;-28
2023/12/11 01:04:42;;;;;;;43.17;5.38;;;;;;;;;;5074784;28;20029;-27
2023/12/11 01:07:07;;;;;;;46.60;5.93;;;;;;;;;;5074649;28;20097;-27
2023/12/11 01:09:32;;;;;;;56.88;5.75;;;;;;;;;;5074085;28;20028;-28
2023/12/11 01:11:57;;;;;;;52.28;6.15;;;;;;;;;;5074784;28;20017;-28
2023/12/11 01:14:23;;;;;;;47.70;6.40;;;;;;;;;;5074098;28;20019;-28
2023/12/11 01:16:48;;;;;;;47.35;5.53;;;;;;;;;;5074492;28;20368;-28
2023/12/11 01:19:13;;;;;;;51.15;6.30;;;;;;;;;;5074477;28;20365;-28
2023/12/11 01:21:38;;;;;;;53.55;6.90;;;;;;;;;;5074200;28;20103;-28
2023/12/11 01:24:04;;;;;;;40.35;5.30;;;;;;;;;;5074068;28;20376;-28
2023/12/11 01:26:29;;;;;;;44.58;5.35;;;;;;;;;;5073231;28;20024;-28
2023/12/11 01:28:54;;;;;;;52.65;6.30;;;;;;;;;;5073669;28;20089;-28
2023/12/11 01:31:19;;;;;;;37.47;4.95;;;;;;;;;;5074278;28;20040;-27
2023/12/11 01:33:45;;;;;;;38.63;4.55;;;;;;;;;;5074274;28;20427;-28
2023/12/11 01:36:10;;;;;;;42.58;5.45;;;;;;;;;;5073691;28;20016;-27
2023/12/11 01:38:35;;;;;;;38.33;5.68;;;;;;;;;;5074206;28;20024;-28
2023/12/11 01:41:00;;;;;;;49.38;6.65;;;;;;;;;;5074271;28;20020;-27
2023/12/11 01:43:26;;;;;;;50.95;5.85;;;;;;;;;;5074184;28;20028;-29
2023/12/11 01:45:57;;;;;;;59.63;6.15;;;;;;;;;;5073833;28;20020;-28
2023/12/11 01:48:22;;;;;;;45.38;5.53;;;;;;;;;;5074185;28;20028;-27
2023/12/11 01:50:48;;;;;;;46.58;6.35;;;;;;;;;;5073566;28;20133;-28
2023/12/11 01:53:13;;;;;;;50.63;6.28;;;;;;;;;;5073638;28;20105;-27
2023/12/11 01:55:38;;;;;;;38.63;5.03;;;;;;;;;;5074135;28;20059;-28
2023/12/11 01:58:04;;;;;;;48.15;5.68;;;;;;;;;;5073516;28;20490;-28
2023/12/11 02:00:29;;;;;;;47.35;5.55;;;;;;;;;;5073770;28;20035;-27
2023/12/11 02:02:54;;;;;;;42.78;5.35;;;;;;;;;;5073275;28;20051;-28
2023/12/11 02:05:20;;;;;;;41.67;5.60;;;;;;;;;;5073880;28;20359;-27
2023/12/11 02:07:45;;;;;;;39.40;4.55;;;;;;;;;;5073339;28;20017;-27
2023/12/11 02:10:10;;;;;;;42.88;5.18;;;;;;;;;;5073309;28;20028;-27
2023/12/11 02:12:36;;;;;;;47.75;5.05;;;;;;;;;;5073807;28;20019;-28
2023/12/11 02:15:01;;;;;;;45.78;5.65;;;;;;;;;;5073342;28;20068;-28
2023/12/11 02:17:26;;;;;;;39.80;4.70;;;;;;;;;;5073310;28;20027;-27
2023/12/11 02:19:52;;;;;;;38.45;4.78;;;;;;;;;;5073246;28;20452;-28
2023/12/11 02:22:18;;;;;;;47.70;5.28;;;;;;;;;;5073279;28;20077;-27
2023/12/11 02:24:47;;;;;;;51.08;5.90;;;;;;;;;;5073548;28;20020;-27
2023/12/11 02:27:13;;;;;;;39.05;4.60;;;;;;;;;;5073409;28;20468;-27
2023/12/11 02:29:39;;;;;;;49.67;5.05;;;;;;;;;;5073645;28;20016;-28
2023/12/11 02:32:04;;;;;;;46.42;5.20;;;;;;;;;;5073651;28;20090;-28
2023/12/11 02:34:29;;;;;;;40.08;5.03;;;;;;;;;;5073571;28;20016;-28
2023/12/11 02:36:54;;;;;;;40.72;4.60;;;;;;;;;;5073069;28;20021;-28
2023/12/11 02:39:20;;;;;;;43.35;4.88;;;;;;;;;;5076980;28;20056;-28
2023/12/11 02:41:45;;;;;;;41.28;5.35;;;;;;;;;;5076960;28;20024;-28
2023/12/11 02:44:10;;;;;;;36.25;4.90;;;;;;;;;;5077529;28;20020;-28
2023/12/11 02:46:37;;;;;;;49.72;5.13;;;;;;;;;;5076860;28;20357;-28
2023/12/11 02:49:02;;;;;;;46.88;6.75;;;;;;;;;;5076847;28;20016;-28
2023/12/11 02:51:28;;;;;;;51.60;4.90;;;;;;;;;;5077352;28;20020;-28
2023/12/11 02:53:53;;;;;;;42.58;5.05;;;;;;;;;;5076699;28;20036;-28
2023/12/11 02:56:18;;;;;;;41.85;5.22;;;;;;;;;;5076693;28;20052;-28
2023/12/11 02:58:44;;;;;;;37.35;5.10;;;;;;;;;;5077228;28;20078;-28
2023/12/11 03:01:09;;;;;;;50.10;4.70;;;;;;;;;;5076344;28;20121;-28
2023/12/11 03:03:34;;;;;;;39.38;5.32;;;;;;;;;;5077107;28;20017;-28
2023/12/11 03:06:03;;;;;;;38.55;4.30;;;;;;;;;;5076476;28;20035;-28
2023/12/11 03:08:28;;;;;;;31.55;4.13;;;;;;;;;;5076657;28;20024;-28
2023/12/11 03:10:53;;;;;;;39.42;5.82;;;;;;;;;;5076719;28;20013;-28
2023/12/11 03:13:18;;;;;;;41.03;4.43;;;;;;;;;;5076196;28;20021;-28
2023/12/11 03:15:43;;;;;;;37.33;4.55;;;;;;;;;;5076782;28;20017;-27
2023/12/11 03:18:10;;;;;;;49.22;5.05;;;;;;;;;;5076170;28;20025;-28
2023/12/11 03:20:35;;;;;;;48.40;5.15;;;;;;;;;;5076619;28;20020;-28
2023/12/11 03:23:00;;;;;;;39.42;4.75;;;;;;;;;;5076307;28;20526;-27
2023/12/11 03:25:25;;;;;;;38.72;4.75;;;;;;;;;;5076097;28;20028;-28
2023/12/11 03:27:50;;;;;;;43.22;4.82;;;;;;;;;;5076055;28;20021;-27
2023/12/11 03:30:16;;;;;;;49.38;4.93;;;;;;;;;;5076345;28;20065;-28
2023/12/11 03:32:41;;;;;;;39.25;5.30;;;;;;;;;;5076089;28;20051;-28
2023/12/11 03:35:06;;;;;;;55.20;5.93;;;;;;;;;;5076519;28;20054;-28
2023/12/11 03:37:31;;;;;;;45.38;5.07;;;;;;;;;;5075893;28;20025;-28
2023/12/11 03:39:57;;;;;;;45.10;4.65;;;;;;;;;;5076292;28;20032;-27
2023/12/11 03:42:22;;;;;;;41.95;5.03;;;;;;;;;;5076180;28;20024;-28
2023/12/11 03:44:47;;;;;;;38.35;4.53;;;;;;;;;;5076167;28;20027;-28
2023/12/11 03:47:12;;;;;;;36.95;5.43;;;;;;;;;;5075853;28;20029;-28
2023/12/11 03:49:38;;;;;;;44.58;4.88;;;;;;;;;;5075049;28;20021;-27
2023/12/11 03:52:03;;;;;;;42.08;4.75;;;;;;;;;;5076216;28;20359;-27
2023/12/11 03:54:28;;;;;;;42.47;5.18;;;;;;;;;;5075661;28;20017;-28
2023/12/11 03:56:54;;;;;;;33.67;5.10;;;;;;;;;;5075966;28;20468;-28
2023/12/11 03:59:19;;;;;;;36.47;5.43;;;;;;;;;;5076112;28;20394;-27
2023/12/11 04:01:45;;;;;;;40.13;4.75;;;;;;;;;;5075398;28;20389;-28
2023/12/11 04:04:10;;;;;;;45.10;4.68;;;;;;;;;;5075499;28;20017;-27
2023/12/11 04:06:35;;;;;;;49.45;7.00;;;;;;;;;;5075412;28;20024;-28
2023/12/11 04:09:00;;;;;;;39.58;5.22;;;;;;;;;;5075290;28;20054;-28
2023/12/11 04:11:25;;;;;;;37.88;4.97;;;;;;;;;;5075262;28;20367;-27
2023/12/11 04:13:51;;;;;;;39.75;5.82;;;;;;;;;;5075278;28;20020;-28
2023/12/11 04:16:16;;;;;;;35.88;4.53;;;;;;;;;;5075808;28;20070;-27
2023/12/11 04:18:42;;;;;;;45.92;4.80;;;;;;;;;;5075168;28;20021;-27
2023/12/11 04:21:07;;;;;;;39.60;5.20;;;;;;;;;;5075392;28;20025;-28
2023/12/11 04:23:33;;;;;;;41.38;4.95;;;;;;;;;;5075148;28;20062;-28
2023/12/11 04:25:59;;;;;;;41.55;4.93;;;;;;;;;;5075037;28;20024;-27
2023/12/11 04:28:24;;;;;;;33.28;4.63;;;;;;;;;;5075192;28;20021;-27
2023/12/11 04:30:49;;;;;;;36.75;4.72;;;;;;;;;;5074943;28;20028;-28
2023/12/11 04:33:14;;;;;;;38.65;4.47;;;;;;;;;;5075107;28;20008;-28
2023/12/11 04:35:40;;;;;;;43.47;5.43;;;;;;;;;;5074854;28;20023;-28
2023/12/11 04:38:05;;;;;;;50.00;5.45;;;;;;;;;;5075013;28;20138;-28
2023/12/11 04:40:30;;;;;;;45.90;5.07;;;;;;;;;;5074737;28;20017;-27
2023/12/11 04:42:55;;;;;;;34.55;4.95;;;;;;;;;;5074712;28;20017;-27
2023/12/11 04:45:21;;;;;;;37.28;4.82;;;;;;;;;;5074192;28;20019;-27
2023/12/11 04:47:46;;;;;;;37.15;4.65;;;;;;;;;;5074111;28;20013;-28
2023/12/11 04:50:11;;;;;;;39.65;4.95;;;;;;;;;;5074247;28;20024;-28
2023/12/11 04:52:36;;;;;;;41.90;6.10;;;;;;;;;;5073663;28;20149;-28
2023/12/11 04:55:02;;;;;;;36.63;5.03;;;;;;;;;;5073437;28;20522;-28
2023/12/11 04:57:27;;;;;;;41.80;4.97;;;;;;;;;;5073803;28;20042;-28
2023/12/11 04:59:52;;;;;;;38.58;5.03;;;;;;;;;;5074433;28;20013;-27
2023/12/11 05:02:17;;;;;;;32.17;4.88;;;;;;;;;;5073251;28;20049;-28
2023/12/11 05:04:42;;;;;;;35.03;4.95;;;;;;;;;;5074529;28;20030;-28
2023/12/11 05:07:08;;;;;;;42.70;4.78;;;;;;;;;;5074242;28;20058;-28
2023/12/11 05:09:33;;;;;;;38.25;5.30;;;;;;;;;;5074664;28;20154;-28
2023/12/11 05:11:58;;;;;;;37.03;3.97;;;;;;;;;;5073990;28;20073;-27
2023/12/11 05:14:23;;;;;;;38.03;5.40;;;;;;;;;;5074411;28;20490;-28
2023/12/11 05:16:49;;;;;;;39.10;5.93;;;;;;;;;;5074582;28;20095;-27
2023/12/11 05:19:14;;;;;;;39.13;5.07;;;;;;;;;;5073999;28;20021;-28
2023/12/11 05:21:43;;;;;;;37.28;4.68;;;;;;;;;;5074495;28;20027;-28
2023/12/11 05:24:08;;;;;;;41.50;5.20;;;;;;;;;;5074144;28;20027;-28
2023/12/11 05:26:33;;;;;;;39.63;5.38;;;;;;;;;;5073830;28;20463;-28
2023/12/11 05:29:00;;;;;;;39.60;5.88;;;;;;;;;;5073690;28;20066;-28
2023/12/11 05:31:25;;;;;;;39.05;4.90;;;;;;;;;;5074133;28;20379;-27
2023/12/11 05:33:50;;;;;;;37.15;5.30;;;;;;;;;;5073685;28;20017;-28
2023/12/11 05:36:15;;;;;;;33.80;4.43;;;;;;;;;;5073698;28;20028;-28
2023/12/11 05:38:41;;;;;;;44.30;5.10;;;;;;;;;;5074291;28;20027;-28
2023/12/11 05:41:06;;;;;;;34.90;4.18;;;;;;;;;;5073670;28;20024;-28
2023/12/11 05:43:31;;;;;;;38.25;5.00;;;;;;;;;;5073620;28;20021;-28
2023/12/11 05:45:57;;;;;;;27.40;4.13;;;;;;;;;;5073875;28;20021;-28
2023/12/11 05:48:22;;;;;;;29.25;4.28;;;;;;;;;;5073859;28;20395;-29
2023/12/11 05:50:47;;;;;;;31.50;3.90;;;;;;;;;;5073476;28;20024;-28
2023/12/11 05:53:12;;;;;;;36.53;5.00;;;;;;;;;;5073608;28;20028;-27
2023/12/11 05:55:37;;;;;;;28.17;3.47;;;;;;;;;;5073405;28;20021;-28
2023/12/11 05:58:03;;;;;;;30.17;3.38;;;;;;;;;;5073496;28;20023;-28
2023/12/11 06:00:28;;;;;;;29.45;3.95;;;;;;;;;;5073686;28;20025;-27
2023/12/11 06:02:53;;;;;;;23.80;3.92;;;;;;;;;;5073259;28;20116;-28
2023/12/11 06:05:18;;;;;;;25.50;3.50;;;;;;;;;;5073404;28;20020;-28
2023/12/11 06:07:44;;;;;;;26.40;3.70;;;;;;;;;;5073400;28;20027;-28
2023/12/11 06:10:09;;;;;;;30.33;3.28;;;;;;;;;;5073510;28;20027;-28
2023/12/11 06:12:34;;;;;;;28.35;3.60;;;;;;;;;;5074429;28;20418;-27
2023/12/11 06:14:59;;;;;;;23.95;3.15;;;;;;;;;;5078734;28;20104;-28
2023/12/11 06:17:25;;;;;;;28.35;4.18;;;;;;;;;;5079920;28;20062;-27
2023/12/11 06:19:50;;;;;;;25.05;3.53;;;;;;;;;;5080216;28;20051;-27
2023/12/11 06:22:16;;;;;;;26.52;3.65;;;;;;;;;;5080207;28;20021;-27
2023/12/11 06:24:41;;;;;;;27.65;3.90;;;;;;;;;;5080071;28;20036;-28
2023/12/11 06:27:06;;;;;;;23.77;3.17;;;;;;;;;;5079841;28;20028;-28
2023/12/11 06:29:32;;;;;;;25.75;3.22;;;;;;;;;;5080304;28;20035;-27
2023/12/11 06:31:57;;;;;;;21.20;2.83;;;;;;;;;;5080355;28;20016;-28
2023/12/11 06:34:22;;;;;;;21.13;2.55;;;;;;;;;;5079969;28;20013;-28
2023/12/11 06:36:48;;;;;;;31.30;3.70;;;;;;;;;;5079773;28;20012;-28
2023/12/11 06:39:13;;;;;;;22.05;3.45;;;;;;;;;;5079708;28;20020;-28
2023/12/11 06:41:38;;;;;;;23.65;3.55;;;;;;;;;;5079975;28;20066;-28
2023/12/11 06:44:04;;;;;;;20.48;2.53;;;;;;;;;;5080258;28;20028;-28
2023/12/11 06:46:29;;;;;;;25.17;3.05;;;;;;;;;;5078278;28;20069;-28
2023/12/11 06:48:57;;;;;;;21.95;4.03;;;;;;;;;;5080144;28;20028;-28
2023/12/11 06:51:25;;;;;;;18.92;3.00;;;;;;;;;;5080121;28;20019;-27
2023/12/11 06:53:51;;;;;;;16.17;2.30;;;;;;;;;;5079524;28;20017;-28
2023/12/11 06:56:17;;;;;;;22.08;2.85;;;;;;;;;;5079381;28;20509;-28
2023/12/11 06:58:43;;;;;;;17.23;2.38;;;;;;;;;;5079917;28;20090;-28
2023/12/11 07:01:09;;;;;;;14.25;2.40;;;;;;;;;;5078947;28;20016;-28
2023/12/11 07:03:34;;;;;;;27.23;3.05;;;;;;;;;;5079563;28;20062;-28
2023/12/11 07:06:00;;;;;;;19.70;3.22;;;;;;;;;;5079587;28;20099;-28
2023/12/11 07:08:25;;;;;;;19.95;2.97;;;;;;;;;;5079323;28;20035;-28
2023/12/11 07:10:50;;;;;;;16.10;2.55;;;;;;;;;;5079774;28;20017;-28
2023/12/11 07:13:16;;;;;;;24.40;3.50;;;;;;;;;;5079321;28;20023;-27
2023/12/11 07:15:41;;;;;;;18.92;2.85;;;;;;;;;;5079615;28;20058;-27
2023/12/11 07:18:07;;;;;;;18.02;2.72;;;;;;;;;;5079815;28;20017;-27
2023/12/11 07:20:33;;;;;;;18.60;2.40;;;;;;;;;;5079617;28;20063;-28
2023/12/11 07:22:58;;;;;;;24.38;3.05;;;;;;;;;;5079640;28;20017;-28
2023/12/11 07:25:23;;;;;;;20.80;3.15;;;;;;;;;;5075987;28;20073;-27
2023/12/11 07:27:49;;;;;;;19.00;2.47;;;;;;;;;;5076164;28;20154;-27
2023/12/11 07:30:14;;;;;;;23.45;2.55;;;;;;;;;;5076396;28;20058;-28
2023/12/11 07:32:39;;;;;;;18.25;2.63;;;;;;;;;;5076301;28;20021;-27
2023/12/11 07:35:08;;;;;;;20.15;2.45;;;;;;;;;;5076219;28;20048;-27
2023/12/11 07:37:33;;;;;;;14.43;2.22;;;;;;;;;;5076156;28;20017;-28
2023/12/11 07:39:58;;;;;;;13.88;2.40;;;;;;;;;;5076387;28;20031;-27
2023/12/11 07:42:23;;;;;;;19.45;2.13;;;;;;;;;;5075812;28;20511;-27
2023/12/11 07:44:49;;;;;;;13.75;2.47;;;;;;;;;;5075743;28;20020;-26
2023/12/11 07:47:14;;;;;;;14.52;2.65;;;;;;;;;;5075975;28;20035;-27
2023/12/11 07:49:39;;;;;;;16.40;2.92;;;;;;;;;;5075747;28;20020;-27
2023/12/11 07:52:05;;;;;;;24.42;2.55;;;;;;;;;;5075931;28;20077;-28
2023/12/11 07:54:30;;;;;;;22.42;2.88;;;;;;;;;;5075572;28;20028;-27
2023/12/11 07:56:55;;;;;;;18.00;3.00;;;;;;;;;;5076059;28;20031;-27
2023/12/11 07:59:20;;;;;;;21.75;2.67;;;;;;;;;;5075469;28;20024;-27
2023/12/11 08:01:45;;;;;;;16.95;2.80;;;;;;;;;;5075283;28;20036;-28
2023/12/11 08:04:12;;;;;;;22.38;3.05;;;;;;;;;;5075446;28;20028;-27
2023/12/11 08:06:41;;;;;;;24.27;3.33;;;;;;;;;;5075972;28;20463;-27
2023/12/11 08:09:07;;;;;;;21.67;3.13;;;;;;;;;;5075251;28;20066;-27
2023/12/11 08:11:33;;;;;;;30.88;4.30;;;;;;;;;;5075479;28;20017;-28
2023/12/11 08:13:58;;;;;;;23.15;2.95;;;;;;;;;;5075493;28;20357;-31
2023/12/11 08:16:23;;;;;;;25.85;4.35;;;;;;;;;;5075795;28;20456;-27
2023/12/11 08:18:48;;;;;;;20.17;3.55;;;;;;;;;;5075314;28;20020;-28
2023/12/11 08:21:16;;;;;;;25.67;3.67;;;;;;;;;;5075118;28;20386;-27
2023/12/11 08:23:43;;;;;;;25.65;4.03;;;;;;;;;;5075352;28;20021;-27
2023/12/11 08:26:09;;;;;;;25.92;4.30;;;;;;;;;;5075285;28;20431;-28
2023/12/11 08:28:34;;;;;;;23.75;3.60;;;;;;;;;;5074800;28;20052;-28
2023/12/11 08:30:59;;;;;;;29.92;3.90;;;;;;;;;;5074667;28;20020;-27
2023/12/11 08:33:24;;;;;;;23.83;3.85;;;;;;;;;;5075056;28;20063;-28
2023/12/11 08:35:50;;;;;;;28.38;4.18;;;;;;;;;;5074953;28;20012;-27
2023/12/11 08:38:16;;;;;;;29.77;3.70;;;;;;;;;;5074802;28;20020;-28
2023/12/11 08:40:41;;;;;;;23.35;3.50;;;;;;;;;;5074782;28;20376;-27
2023/12/11 08:43:06;;;;;;;26.08;3.20;;;;;;;;;;5073497;28;20106;-27
2023/12/11 08:45:32;;;;;;;23.23;3.30;;;;;;;;;;5074916;28;20012;-28
2023/12/11 08:47:58;;;;;;;18.50;2.97;;;;;;;;;;5074858;28;20020;-27
2023/12/11 08:50:23;;;;;;;16.05;3.05;;;;;;;;;;5074528;28;20418;-27
2023/12/11 08:52:48;;;;;;;28.42;3.55;;;;;;;;;;5074485;28;20047;-27
2023/12/11 08:55:13;;;;;;;23.30;3.50;;;;;;;;;;5074980;28;20356;-28
2023/12/11 08:57:41;;;;;;;16.98;3.17;;;;;;;;;;5074761;28;20021;-27
2023/12/11 09:00:06;;;;;;;19.85;3.90;;;;;;;;;;5074332;28;20020;-27
2023/12/11 09:02:31;;;;;;;21.30;3.20;;;;;;;;;;5074107;28;20044;-28
2023/12/11 09:04:56;;;;;;;20.60;3.58;;;;;;;;;;5074799;28;20027;-27
2023/12/11 09:07:22;;;;;;;18.55;2.92;;;;;;;;;;5074702;28;20021;-28
2023/12/11 09:09:47;;;;;;;20.02;3.65;;;;;;;;;;5074545;28;20031;-27
2023/12/11 09:12:12;;;;;;;26.55;4.25;;;;;;;;;;5072882;28;20025;-28
2023/12/11 09:14:37;;;;;;;19.48;3.42;;;;;;;;;;5074072;28;20031;-28
2023/12/11 09:17:03;;;;;;;26.60;3.35;;;;;;;;;;5073993;28;20135;-27
2023/12/11 09:19:28;;;;;;;28.05;4.30;;;;;;;;;;5074805;28;20028;-27
2023/12/11 09:21:53;;;;;;;25.48;4.28;;;;;;;;;;5072805;28;20051;-28
2023/12/11 09:24:19;;;;;;;30.70;3.80;;;;;;;;;;5073918;28;20026;-27
2023/12/11 09:26:44;;;;;;;29.02;3.75;;;;;;;;;;5073913;28;20062;-29
2023/12/11 09:29:10;;;;;;;18.15;3.67;;;;;;;;;;5073771;28;20024;-28
2023/12/11 09:31:36;;;;;;;22.55;4.50;;;;;;;;;;5073794;28;20356;-27
2023/12/11 09:34:01;;;;;;;23.63;4.55;;;;;;;;;;5074438;28;20019;-28
2023/12/11 09:36:26;;;;;;;26.77;4.75;;;;;;;;;;5073769;28;20016;-27
2023/12/11 09:38:51;;;;;;;24.27;4.10;;;;;;;;;;5074836;28;20016;-27
2023/12/11 09:41:17;;;;;;;20.52;3.25;;;;;;;;;;5073977;28;20020;-28
2023/12/11 09:43:43;;;;;;;22.35;3.97;;;;;;;;;;5073646;28;20020;-27
2023/12/11 09:46:11;;;;;;;25.63;3.72;;;;;;;;;;5074160;28;20025;-27
2023/12/11 09:48:36;;;;;;;24.00;3.42;;;;;;;;;;5072913;28;20052;-27
2023/12/11 09:51:02;;;;;;;30.85;4.35;;;;;;;;;;5073514;28;20458;-28
2023/12/11 09:53:30;;;;;;;32.70;3.70;;;;;;;;;;5073182;28;20025;-28
2023/12/11 09:55:55;;;;;;;21.75;3.42;;;;;;;;;;5073718;28;20017;-27
2023/12/11 09:58:21;;;;;;;28.92;3.67;;;;;;;;;;5073925;28;20017;-27
2023/12/11 10:00:46;;;;;;;24.77;3.58;;;;;;;;;;5073402;28;20459;-27
2023/12/11 10:03:11;;;;;;;20.25;3.22;;;;;;;;;;5073321;28;20040;-28
2023/12/11 10:05:37;;;;;;;20.08;3.28;;;;;;;;;;5073390;28;20439;-27
2023/12/11 10:08:02;;;;;;;22.95;2.80;;;;;;;;;;5073646;28;20471;-28
2023/12/11 10:10:33;;;;;;;23.48;3.20;;;;;;;;;;5073104;28;20103;-27
2023/12/11 10:12:58;;;;;;;21.48;2.65;;;;;;;;;;5073686;28;20082;-28
2023/12/11 10:15:28;;;;;;;25.85;2.80;;;;;;;;;;5073456;28;20017;-27
2023/12/11 10:17:59;;;;;;;17.92;3.08;;;;;;;;;;5073578;28;20017;-27
2023/12/11 10:20:24;;;;;;;15.57;2.13;;;;;;;;;;5073731;28;20025;-27
2023/12/11 10:22:49;;;;;;;16.17;2.20;;;;;;;;;;5073863;28;20355;-28
2023/12/11 10:25:22;;;;;;;21.27;2.50;;;;;;;;;;5073207;28;20468;-28
2023/12/11 10:27:47;;;;;;;10.95;1.95;;;;;;;;;;5073704;28;20074;-28
2023/12/11 10:30:14;;;;;;;11.80;2.08;;;;;;;;;;5073168;28;20028;-34
2023/12/11 10:32:39;;;;;;;16.85;3.13;;;;;;;;;;5073177;28;20005;-28
2023/12/11 10:35:05;;;;;;;15.65;2.53;;;;;;;;;;5073134;28;20345;-28
2023/12/11 10:37:30;;;;;;;19.70;3.42;;;;;;;;;;5073675;28;20424;-27
2023/12/11 10:39:56;;;;;;;12.32;1.98;;;;;;;;;;5074159;28;20020;-28
2023/12/11 10:42:22;;;;;;;12.38;2.00;;;;;;;;;;5073246;28;20017;-28
2023/12/11 10:44:48;;;;;;;14.90;2.33;;;;;;;;;;5072989;28;20024;-28
2023/12/11 10:47:13;;;;;;;16.20;1.90;;;;;;;;;;5071758;28;20016;-27
2023/12/11 10:49:39;;;;;;;15.77;2.00;;;;;;;;;;5073202;28;20073;-28
2023/12/11 10:52:05;;;;;;;13.98;2.15;;;;;;;;;;5072947;28;20020;-27
2023/12/11 10:54:30;;;;;;;17.63;2.92;;;;;;;;;;5073227;28;20016;-27
2023/12/11 10:56:59;;;;;;;14.95;1.98;;;;;;;;;;5073208;28;20046;-27
2023/12/11 10:59:24;;;;;;;18.42;2.47;;;;;;;;;;5073071;28;20096;-27
2023/12/11 11:01:49;;;;;;;16.88;2.53;;;;;;;;;;5076556;28;20151;-27
2023/12/11 11:04:16;;;;;;;15.88;2.05;;;;;;;;;;5076608;28;20209;-27
2023/12/11 11:06:51;;;;;;;15.68;2.05;;;;;;;;;;5076579;28;20017;-28
2023/12/11 11:09:22;;;;;;;14.18;2.13;;;;;;;;;;5076437;28;20024;-27
2023/12/11 11:11:52;;;;;;;20.75;2.42;;;;;;;;;;5076437;28;20374;-27
2023/12/11 11:14:17;;;;;;;14.68;1.88;;;;;;;;;;5076771;28;20012;-28
2023/12/11 11:16:52;;;;;;;13.60;2.13;;;;;;;;;;5077022;28;20023;-28
2023/12/11 11:19:17;;;;;;;15.75;2.78;;;;;;;;;;5076339;28;20344;-28
2023/12/11 11:22:04;;;;;;;14.02;1.85;;;;;;;;;;5075057;28;20020;-28
2023/12/11 11:24:30;;;;;;;14.07;3.00;;;;;;;;;;5076488;28;20029;-27
2023/12/11 11:26:59;;;;;;;14.85;2.30;;;;;;;;;;5076537;28;20107;-27
2023/12/11 11:29:45;;;;;;;20.42;2.28;;;;;;;;;;5076378;28;20027;-32
2023/12/11 11:32:10;;;;;;;16.88;2.25;;;;;;;;;;5075756;28;20115;-27
2023/12/11 11:34:42;;;;;;;13.02;2.03;;;;;;;;;;5076559;28;20426;-27
2023/12/11 11:37:08;;;;;;;19.75;2.38;;;;;;;;;;5076279;28;20024;-28
2023/12/11 11:39:52;;;;;;;12.52;1.88;;;;;;;;;;5075879;28;20016;-27
2023/12/11 11:42:17;;;;;;;17.23;2.13;;;;;;;;;;5075817;28;20522;-28
2023/12/11 11:44:42;;;;;;;8.13;1.70;;;;;;;;;;5075936;28;20029;-27
2023/12/11 11:47:08;;;;;;;11.98;1.90;;;;;;;;;;5075786;28;20346;-27
2023/12/11 11:49:36;;;;;;;14.90;2.03;;;;;;;;;;5075716;28;20025;-27
2023/12/11 11:52:05;;;;;;;10.35;2.13;;;;;;;;;;5075878;28;20104;-27
2023/12/11 11:54:31;;;;;;;12.38;2.03;;;;;;;;;;5075585;28;20013;-29
2023/12/11 11:56:56;;;;;;;8.15;1.70;;;;;;;;;;5075559;28;20013;-27
2023/12/11 11:59:22;;;;;;;10.95;1.83;;;;;;;;;;5075624;28;20078;-28
2023/12/11 12:01:47;;;;;;;10.73;1.77;;;;;;;;;;5075304;28;20074;-27
2023/12/11 12:04:33;;;;;;;9.82;2.05;;;;;;;;;;5075717;28;20293;-28
2023/12/11 12:07:00;;;;;;;15.95;2.38;;;;;;;;;;5075939;28;20380;-27
2023/12/11 12:09:25;;;;;;;15.82;1.92;;;;;;;;;;5075641;28;20414;-27
2023/12/11 12:11:50;;;;;;;10.57;1.50;;;;;;;;;;5074984;28;20066;-27
2023/12/11 12:14:16;;;;;;;13.95;2.05;;;;;;;;;;5075227;28;20034;-27
2023/12/11 12:16:41;;;;;;;19.58;2.20;;;;;;;;;;5074636;28;20078;-28
2023/12/11 12:19:06;;;;;;;17.38;2.00;;;;;;;;;;5074668;28;20035;-27
2023/12/11 12:21:33;;;;;;;11.38;1.90;;;;;;;;;;5075024;28;20017;-27
2023/12/11 12:24:03;;;;;;;12.65;2.17;;;;;;;;;;5075011;28;20016;-27
2023/12/11 12:26:29;;;;;;;11.52;2.13;;;;;;;;;;5075316;28;20036;-27
2023/12/11 12:28:54;;;;;;;8.25;1.77;;;;;;;;;;5074911;28;20190;-27
2023/12/11 12:31:19;;;;;;;20.63;2.47;;;;;;;;;;5075116;28;20483;-28
2023/12/11 12:33:44;;;;;;;12.45;2.28;;;;;;;;;;5074832;28;20255;-27
2023/12/11 12:36:10;;;;;;;14.48;2.03;;;;;;;;;;5075364;28;20017;-27
2023/12/11 12:38:35;;;;;;;14.98;2.50;;;;;;;;;;5075009;28;20013;-27
2023/12/11 12:41:00;;;;;;;15.50;2.10;;;;;;;;;;5074736;28;20024;-27
2023/12/11 12:43:26;;;;;;;15.02;2.67;;;;;;;;;;5075260;28;20411;-27
2023/12/11 12:45:58;;;;;;;12.55;3.15;;;;;;;;;;5074886;28;20048;-27
2023/12/11 12:48:27;;;;;;;9.60;1.92;;;;;;;;;;5074534;28;20502;-29
2023/12/11 12:51:03;;;;;;;11.80;2.00;;;;;;;;;;5073452;28;20020;-28
2023/12/11 12:53:29;;;;;;;13.45;2.40;;;;;;;;;;5074396;28;20016;-27
2023/12/11 12:55:55;;;;;;;15.82;2.03;;;;;;;;;;5074655;28;20459;-27
2023/12/11 12:58:26;;;;;;;16.80;2.42;;;;;;;;;;5074355;28;20046;-27
2023/12/11 13:00:57;;;;;;;11.45;1.90;;;;;;;;;;5074351;28;20013;-27
2023/12/11 13:03:23;;;;;;;13.15;2.53;;;;;;;;;;5073989;28;20064;-27
2023/12/11 13:05:50;;;;;;;11.35;2.00;;;;;;;;;;5074177;28;20502;-27
2023/12/11 13:08:15;;;;;;;14.35;2.25;;;;;;;;;;5073902;28;20056;-27
2023/12/11 13:10:54;;;;;;;12.17;2.03;;;;;;;;;;5074130;28;20042;-27
2023/12/11 13:13:21;;;;;;;12.68;2.20;;;;;;;;;;5074332;28;20255;-27
2023/12/11 13:15:47;;;;;;;11.25;2.20;;;;;;;;;;5074344;28;20070;-27
2023/12/11 13:18:13;;;;;;;14.88;2.40;;;;;;;;;;5074330;28;20398;-28
2023/12/11 13:20:38;;;;;;;12.00;2.25;;;;;;;;;;5073863;28;20379;-26
2023/12/11 13:23:03;;;;;;;8.93;2.28;;;;;;;;;;5073346;28;20099;-27
2023/12/11 13:25:29;;;;;;;7.93;1.80;;;;;;;;;;5074157;28;20493;-27
2023/12/11 13:27:54;;;;;;;9.73;1.90;;;;;;;;;;5074069;28;20016;-27
2023/12/11 13:30:19;;;;;;;9.37;1.97;;;;;;;;;;5073701;28;20025;-27
2023/12/11 13:32:44;;;;;;;12.73;2.20;;;;;;;;;;5073757;28;20254;-27
2023/12/11 13:35:09;;;;;;;14.90;2.45;;;;;;;;;;5074043;28;20042;-27
2023/12/11 13:37:36;;;;;;;10.70;1.92;;;;;;;;;;5073615;28;20016;-26
2023/12/11 13:40:04;;;;;;;12.57;2.30;;;;;;;;;;5072390;28;20479;-27
2023/12/11 13:42:30;;;;;;;11.25;2.30;;;;;;;;;;5073879;28;20020;-26
2023/12/11 13:44:58;;;;;;;13.48;2.60;;;;;;;;;;5074050;28;20043;-27
2023/12/11 13:47:23;;;;;;;10.02;3.15;;;;;;;;;;5073833;28;20024;-26
2023/12/11 13:49:48;;;;;;;12.32;2.42;;;;;;;;;;5073609;28;20020;-26
2023/12/11 13:52:14;;;;;;;12.13;2.60;;;;;;;;;;5073710;28;20051;-27
2023/12/11 13:54:39;;;;;;;9.65;2.30;;;;;;;;;;5073702;28;20027;-27
2023/12/11 13:57:04;;;;;;;19.80;2.37;;;;;;;;;;5073522;28;20020;-27
2023/12/11 13:59:29;;;;;;;9.77;2.80;;;;;;;;;;5073646;28;20295;-27
2023/12/11 14:01:57;;;;;;;12.10;2.15;;;;;;;;;;5073395;28;20537;-27
2023/12/11 14:04:24;;;;;;;11.85;2.28;;;;;;;;;;5073322;28;20017;-27
2023/12/11 14:06:49;;;;;;;13.85;2.00;;;;;;;;;;5073623;28;20388;-27
2023/12/11 14:09:14;;;;;;;10.63;2.03;;;;;;;;;;5073238;28;20024;-28
2023/12/11 14:11:39;;;;;;;9.07;2.30;;;;;;;;;;5073247;28;20342;-27
2023/12/11 14:14:04;;;;;;;9.30;1.85;;;;;;;;;;5073546;28;20385;-27
2023/12/11 14:16:30;;;;;;;11.70;3.43;;;;;;;;;;5073282;28;20017;-27
2023/12/11 14:18:56;;;;;;;11.13;1.80;;;;;;;;;;5073870;28;20258;-27
2023/12/11 14:21:22;;;;;;;8.83;1.60;;;;;;;;;;5073858;28;20017;-27
2023/12/11 14:23:47;;;;;;;6.53;1.75;;;;;;;;;;5073448;28;20774;-27